sensor_id;sensor_type;location;lat;lon;timestamp;pressure;altitude;pressure_sealevel;temperature;humidity
16690;BME280;8458;52.220;9.884;2022-07-06T00:01:10;101466.28;;;18.10;63.99
16690;BME280;8458;52.220;9.884;2022-07-06T00:03:38;101470.25;;;18.04;64.14
16690;BME280;8458;52.220;9.884;2022-07-06T00:06:05;101463.59;;;18.00;64.31
16690;BME280;8458;52.220;9.884;2022-07-06T00:08:31;101466.88;;;18.07;64.38
16690;BME280;8458;52.220;9.884;2022-07-06T00:10:58;101465.09;;;18.17;64.00
16690;BME280;8458;52.220;9.884;2022-07-06T00:13:24;101467.72;;;18.08;64.04
16690;BME280;8458;52.220;9.884;2022-07-06T00:15:51;101458.44;;;18.07;63.69
16690;BME280;8458;52.220;9.884;2022-07-06T00:18:17;101461.75;;;18.15;63.44
16690;BME280;8458;52.220;9.884;2022-07-06T00:20:45;101458.25;;;18.28;63.00
16690;BME280;8458;52.220;9.884;2022-07-06T00:23:12;101458.25;;;18.28;62.27
16690;BME280;8458;52.220;9.884;2022-07-06T00:25:38;101457.16;;;18.24;61.81
16690;BME280;8458;52.220;9.884;2022-07-06T00:28:05;101451.16;;;18.31;61.77
16690;BME280;8458;52.220;9.884;2022-07-06T00:30:32;101454.28;;;18.29;61.77
16690;BME280;8458;52.220;9.884;2022-07-06T00:32:58;101450.94;;;18.27;61.34
16690;BME280;8458;52.220;9.884;2022-07-06T00:35:25;101454.88;;;18.26;61.51
16690;BME280;8458;52.220;9.884;2022-07-06T00:37:53;101447.84;;;18.28;61.21
16690;BME280;8458;52.220;9.884;2022-07-06T00:40:20;101455.84;;;18.40;60.37
16690;BME280;8458;52.220;9.884;2022-07-06T00:42:48;101449.88;;;18.47;60.48
16690;BME280;8458;52.220;9.884;2022-07-06T00:45:17;101446.34;;;18.36;60.05
16690;BME280;8458;52.220;9.884;2022-07-06T00:47:44;101449.13;;;18.12;60.51
16690;BME280;8458;52.220;9.884;2022-07-06T00:50:12;101449.25;;;18.02;60.90
16690;BME280;8458;52.220;9.884;2022-07-06T00:52:44;101445.72;;;17.86;61.55
16690;BME280;8458;52.220;9.884;2022-07-06T00:55:14;101460.47;;;17.72;62.25
16690;BME280;8458;52.220;9.884;2022-07-06T00:57:41;101453.13;;;17.42;62.72
16690;BME280;8458;52.220;9.884;2022-07-06T01:00:10;101455.72;;;17.33;63.41
16690;BME280;8458;52.220;9.884;2022-07-06T01:02:38;101460.66;;;17.47;63.50
16690;BME280;8458;52.220;9.884;2022-07-06T01:05:06;101457.81;;;17.52;63.59
16690;BME280;8458;52.220;9.884;2022-07-06T01:07:33;101463.81;;;17.40;64.66
16690;BME280;8458;52.220;9.884;2022-07-06T01:10:00;101466.84;;;17.44;64.99
16690;BME280;8458;52.220;9.884;2022-07-06T01:12:29;101452.22;;;17.52;65.12
16690;BME280;8458;52.220;9.884;2022-07-06T01:14:56;101458.53;;;17.33;65.69
16690;BME280;8458;52.220;9.884;2022-07-06T01:17:23;101457.34;;;17.45;65.72
16690;BME280;8458;52.220;9.884;2022-07-06T01:19:50;101457.91;;;17.42;65.91
16690;BME280;8458;52.220;9.884;2022-07-06T01:22:18;101457.81;;;17.52;65.76
16690;BME280;8458;52.220;9.884;2022-07-06T01:24:44;101461.66;;;17.61;65.15
16690;BME280;8458;52.220;9.884;2022-07-06T01:27:11;101460.63;;;17.52;65.51
16690;BME280;8458;52.220;9.884;2022-07-06T01:29:37;101459.41;;;17.63;65.34
16690;BME280;8458;52.220;9.884;2022-07-06T01:32:05;101458.31;;;17.59;65.51
16690;BME280;8458;52.220;9.884;2022-07-06T01:34:31;101444.97;;;17.46;65.18
16690;BME280;8458;52.220;9.884;2022-07-06T01:36:58;101445.97;;;17.26;64.57
16690;BME280;8458;52.220;9.884;2022-07-06T01:39:26;101450.06;;;16.99;64.73
16690;BME280;8458;52.220;9.884;2022-07-06T01:41:52;101449.06;;;16.79;64.97
16690;BME280;8458;52.220;9.884;2022-07-06T01:44:19;101448.34;;;16.53;66.12
16690;BME280;8458;52.220;9.884;2022-07-06T01:46:45;101454.78;;;16.54;66.11
16690;BME280;8458;52.220;9.884;2022-07-06T01:49:12;101447.78;;;16.56;66.05
16690;BME280;8458;52.220;9.884;2022-07-06T01:51:39;101446.75;;;16.31;66.67
16690;BME280;8458;52.220;9.884;2022-07-06T01:54:05;101451.22;;;16.38;66.95
16690;BME280;8458;52.220;9.884;2022-07-06T01:56:33;101441.66;;;16.39;66.93
16690;BME280;8458;52.220;9.884;2022-07-06T01:59:00;101440.28;;;16.41;67.07
16690;BME280;8458;52.220;9.884;2022-07-06T02:01:26;101454.00;;;16.33;67.02
16690;BME280;8458;52.220;9.884;2022-07-06T02:03:53;101444.53;;;16.23;67.40
16690;BME280;8458;52.220;9.884;2022-07-06T02:06:19;101447.34;;;16.18;67.53
16690;BME280;8458;52.220;9.884;2022-07-06T02:08:46;101438.13;;;16.18;67.22
16690;BME280;8458;52.220;9.884;2022-07-06T02:11:12;101439.84;;;15.93;67.35
16690;BME280;8458;52.220;9.884;2022-07-06T02:13:40;101448.78;;;15.95;67.35
16690;BME280;8458;52.220;9.884;2022-07-06T02:16:07;101442.94;;;15.91;67.62
16690;BME280;8458;52.220;9.884;2022-07-06T02:18:33;101452.44;;;15.90;67.67
16690;BME280;8458;52.220;9.884;2022-07-06T02:21:00;101446.78;;;16.11;67.05
16690;BME280;8458;52.220;9.884;2022-07-06T02:23:27;101441.50;;;15.94;67.59
16690;BME280;8458;52.220;9.884;2022-07-06T02:25:53;101456.31;;;16.05;67.40
16690;BME280;8458;52.220;9.884;2022-07-06T02:28:20;101450.47;;;16.01;67.59
16690;BME280;8458;52.220;9.884;2022-07-06T02:30:48;101455.47;;;16.09;67.42
16690;BME280;8458;52.220;9.884;2022-07-06T02:33:14;101455.47;;;16.15;67.20
16690;BME280;8458;52.220;9.884;2022-07-06T02:35:41;101456.84;;;16.17;66.85
16690;BME280;8458;52.220;9.884;2022-07-06T02:38:08;101453.81;;;15.98;67.45
16690;BME280;8458;52.220;9.884;2022-07-06T02:40:35;101461.38;;;16.03;67.44
16690;BME280;8458;52.220;9.884;2022-07-06T02:43:01;101473.69;;;15.97;67.65
16690;BME280;8458;52.220;9.884;2022-07-06T02:45:28;101461.69;;;15.86;68.10
16690;BME280;8458;52.220;9.884;2022-07-06T02:47:56;101458.59;;;15.67;68.98
16690;BME280;8458;52.220;9.884;2022-07-06T02:50:22;101458.06;;;15.80;69.02
16690;BME280;8458;52.220;9.884;2022-07-06T02:52:49;101462.50;;;15.91;68.44
16690;BME280;8458;52.220;9.884;2022-07-06T02:55:16;101457.75;;;15.76;68.97
16690;BME280;8458;52.220;9.884;2022-07-06T02:57:42;101457.47;;;15.83;68.83
16690;BME280;8458;52.220;9.884;2022-07-06T03:00:09;101458.88;;;15.75;69.13
16690;BME280;8458;52.220;9.884;2022-07-06T03:02:36;101451.59;;;15.90;68.86
16690;BME280;8458;52.220;9.884;2022-07-06T03:05:05;101458.00;;;15.95;68.94
16690;BME280;8458;52.220;9.884;2022-07-06T03:07:32;101463.31;;;16.07;68.57
16690;BME280;8458;52.220;9.884;2022-07-06T03:09:58;101460.78;;;16.11;68.54
16690;BME280;8458;52.220;9.884;2022-07-06T03:12:25;101463.56;;;16.21;68.11
16690;BME280;8458;52.220;9.884;2022-07-06T03:14:52;101466.94;;;16.18;68.22
16690;BME280;8458;52.220;9.884;2022-07-06T03:17:18;101470.31;;;16.05;68.75
16690;BME280;8458;52.220;9.884;2022-07-06T03:19:46;101459.44;;;15.93;69.33
16690;BME280;8458;52.220;9.884;2022-07-06T03:22:14;101462.50;;;15.97;69.32
16690;BME280;8458;52.220;9.884;2022-07-06T03:24:41;101464.72;;;15.89;69.76
16690;BME280;8458;52.220;9.884;2022-07-06T03:27:07;101466.44;;;15.85;69.89
16690;BME280;8458;52.220;9.884;2022-07-06T03:29:34;101466.41;;;15.70;70.57
16690;BME280;8458;52.220;9.884;2022-07-06T03:32:00;101471.16;;;15.64;70.93
16690;BME280;8458;52.220;9.884;2022-07-06T03:34:27;101466.16;;;15.51;71.32
16690;BME280;8458;52.220;9.884;2022-07-06T03:36:54;101470.88;;;15.50;71.77
16690;BME280;8458;52.220;9.884;2022-07-06T03:39:22;101463.06;;;15.52;71.71
16690;BME280;8458;52.220;9.884;2022-07-06T03:41:48;101457.47;;;15.63;71.58
16690;BME280;8458;52.220;9.884;2022-07-06T03:44:15;101463.34;;;15.40;72.03
16690;BME280;8458;52.220;9.884;2022-07-06T03:46:41;101468.94;;;15.46;72.23
16690;BME280;8458;52.220;9.884;2022-07-06T03:49:08;101463.06;;;15.42;72.27
16690;BME280;8458;52.220;9.884;2022-07-06T03:51:34;101462.22;;;15.52;72.21
16690;BME280;8458;52.220;9.884;2022-07-06T03:54:01;101470.63;;;15.41;72.54
16690;BME280;8458;52.220;9.884;2022-07-06T03:56:29;101470.63;;;15.41;72.68
16690;BME280;8458;52.220;9.884;2022-07-06T03:58:58;101473.66;;;15.35;73.02
16690;BME280;8458;52.220;9.884;2022-07-06T04:01:25;101466.69;;;15.32;73.12
16690;BME280;8458;52.220;9.884;2022-07-06T04:03:52;101480.41;;;15.34;73.60
16690;BME280;8458;52.220;9.884;2022-07-06T04:06:19;101476.19;;;15.26;73.42
16690;BME280;8458;52.220;9.884;2022-07-06T04:08:45;101479.81;;;15.21;73.73
16690;BME280;8458;52.220;9.884;2022-07-06T04:11:12;101486.47;;;15.05;74.73
16690;BME280;8458;52.220;9.884;2022-07-06T04:13:40;101476.16;;;15.16;74.60
16690;BME280;8458;52.220;9.884;2022-07-06T04:16:07;101478.72;;;15.28;74.32
16690;BME280;8458;52.220;9.884;2022-07-06T04:18:34;101486.53;;;15.36;74.05
16690;BME280;8458;52.220;9.884;2022-07-06T04:21:00;101484.03;;;15.50;73.43
16690;BME280;8458;52.220;9.884;2022-07-06T04:23:27;101479.28;;;15.55;73.32
16690;BME280;8458;52.220;9.884;2022-07-06T04:25:54;101492.13;;;15.72;72.68
16690;BME280;8458;52.220;9.884;2022-07-06T04:28:21;101490.47;;;15.76;72.56
16690;BME280;8458;52.220;9.884;2022-07-06T04:30:49;101489.34;;;15.67;72.46
16690;BME280;8458;52.220;9.884;2022-07-06T04:33:15;101493.25;;;15.55;72.95
16690;BME280;8458;52.220;9.884;2022-07-06T04:35:42;101499.69;;;15.61;73.03
16690;BME280;8458;52.220;9.884;2022-07-06T04:38:08;101494.94;;;15.62;72.87
16690;BME280;8458;52.220;9.884;2022-07-06T04:40:35;101494.94;;;15.62;72.82
16690;BME280;8458;52.220;9.884;2022-07-06T04:43:01;101489.31;;;15.41;73.17
16690;BME280;8458;52.220;9.884;2022-07-06T04:45:28;101494.94;;;15.51;73.28
16690;BME280;8458;52.220;9.884;2022-07-06T04:47:56;101504.44;;;15.55;73.33
16690;BME280;8458;52.220;9.884;2022-07-06T04:50:22;101491.28;;;15.35;73.85
16690;BME280;8458;52.220;9.884;2022-07-06T04:52:49;101502.19;;;15.42;73.76
16690;BME280;8458;52.220;9.884;2022-07-06T04:55:15;101497.72;;;15.46;73.81
16690;BME280;8458;52.220;9.884;2022-07-06T04:57:42;101496.88;;;15.46;73.85
16690;BME280;8458;52.220;9.884;2022-07-06T05:00:09;101499.38;;;15.32;74.27
16690;BME280;8458;52.220;9.884;2022-07-06T05:02:36;101499.38;;;15.21;75.09
16690;BME280;8458;52.220;9.884;2022-07-06T05:05:05;101495.72;;;15.21;75.37
16690;BME280;8458;52.220;9.884;2022-07-06T05:07:31;101492.94;;;15.11;75.78
16690;BME280;8458;52.220;9.884;2022-07-06T05:09:59;101488.47;;;15.20;76.23
16690;BME280;8458;52.220;9.884;2022-07-06T05:12:25;101487.63;;;15.14;76.30
16690;BME280;8458;52.220;9.884;2022-07-06T05:14:52;101490.72;;;15.33;75.93
16690;BME280;8458;52.220;9.884;2022-07-06T05:17:18;101480.94;;;15.31;75.81
16690;BME280;8458;52.220;9.884;2022-07-06T05:19:45;101492.09;;;15.15;76.57
16690;BME280;8458;52.220;9.884;2022-07-06T05:22:13;101496.00;;;15.14;77.07
16690;BME280;8458;52.220;9.884;2022-07-06T05:24:39;101490.44;;;15.24;76.88
16690;BME280;8458;52.220;9.884;2022-07-06T05:27:06;101497.69;;;15.15;77.28
16690;BME280;8458;52.220;9.884;2022-07-06T05:29:32;101499.34;;;15.16;77.13
16690;BME280;8458;52.220;9.884;2022-07-06T05:31:59;101499.94;;;15.29;77.01
16690;BME280;8458;52.220;9.884;2022-07-06T05:34:25;101495.75;;;15.47;76.38
16690;BME280;8458;52.220;9.884;2022-07-06T05:36:52;101504.44;;;15.60;76.24
16690;BME280;8458;52.220;9.884;2022-07-06T05:39:20;101505.00;;;15.63;75.61
16690;BME280;8458;52.220;9.884;2022-07-06T05:41:48;101501.34;;;15.67;75.70
16690;BME280;8458;52.220;9.884;2022-07-06T05:44:14;101498.88;;;15.81;75.40
16690;BME280;8458;52.220;9.884;2022-07-06T05:46:41;101496.34;;;15.80;75.17
16690;BME280;8458;52.220;9.884;2022-07-06T05:49:07;101501.66;;;15.97;74.71
16690;BME280;8458;52.220;9.884;2022-07-06T05:52:00;101506.13;;;15.98;74.25
16690;BME280;8458;52.220;9.884;2022-07-06T05:54:28;101499.13;;;15.95;74.17
16690;BME280;8458;52.220;9.884;2022-07-06T05:56:54;101500.53;;;15.92;74.08
16690;BME280;8458;52.220;9.884;2022-07-06T05:59:21;101502.19;;;16.09;73.68
16690;BME280;8458;52.220;9.884;2022-07-06T06:01:47;101512.22;;;16.30;73.63
16690;BME280;8458;52.220;9.884;2022-07-06T06:04:14;101505.47;;;16.42;73.35
16690;BME280;8458;52.220;9.884;2022-07-06T06:06:40;101499.31;;;16.40;72.84
16690;BME280;8458;52.220;9.884;2022-07-06T06:09:07;101500.47;;;16.23;73.28
16690;BME280;8458;52.220;9.884;2022-07-06T06:11:35;101509.47;;;16.10;74.38
16690;BME280;8458;52.220;9.884;2022-07-06T06:14:01;101507.75;;;16.24;74.41
16690;BME280;8458;52.220;9.884;2022-07-06T06:16:29;101502.72;;;16.31;74.26
16690;BME280;8458;52.220;9.884;2022-07-06T06:18:55;101508.03;;;16.28;73.75
16690;BME280;8458;52.220;9.884;2022-07-06T06:21:22;101506.38;;;16.27;73.44
16690;BME280;8458;52.220;9.884;2022-07-06T06:23:48;101505.47;;;16.42;73.30
16690;BME280;8458;52.220;9.884;2022-07-06T06:26:16;101504.91;;;16.45;72.67
16690;BME280;8458;52.220;9.884;2022-07-06T06:28:44;101511.13;;;16.31;73.33
16690;BME280;8458;52.220;9.884;2022-07-06T06:31:10;101509.44;;;16.25;73.41
16690;BME280;8458;52.220;9.884;2022-07-06T06:33:37;101519.53;;;16.11;72.70
16690;BME280;8458;52.220;9.884;2022-07-06T06:36:04;101517.28;;;16.23;72.73
16690;BME280;8458;52.220;9.884;2022-07-06T06:38:30;101515.56;;;16.33;72.90
16690;BME280;8458;52.220;9.884;2022-07-06T06:40:57;101518.34;;;16.43;72.68
16690;BME280;8458;52.220;9.884;2022-07-06T06:43:24;101515.56;;;16.43;71.27
16690;BME280;8458;52.220;9.884;2022-07-06T06:45:51;101522.91;;;16.13;71.16
16690;BME280;8458;52.220;9.884;2022-07-06T06:48:18;101524.56;;;16.24;70.72
16690;BME280;8458;52.220;9.884;2022-07-06T06:50:45;101517.53;;;16.32;70.09
16690;BME280;8458;52.220;9.884;2022-07-06T06:53:12;101527.88;;;16.37;69.89
16690;BME280;8458;52.220;9.884;2022-07-06T06:55:39;101519.75;;;16.45;68.84
16690;BME280;8458;52.220;9.884;2022-07-06T06:58:05;101525.06;;;16.47;69.13
16690;BME280;8458;52.220;9.884;2022-07-06T07:00:32;101528.63;;;16.68;69.33
16690;BME280;8458;52.220;9.884;2022-07-06T07:03:00;101533.38;;;16.78;68.58
16690;BME280;8458;52.220;9.884;2022-07-06T07:05:26;101538.34;;;16.91;68.57
16690;BME280;8458;52.220;9.884;2022-07-06T07:07:53;101531.34;;;16.94;66.81
16690;BME280;8458;52.220;9.884;2022-07-06T07:10:24;101546.75;;;16.96;65.61
16690;BME280;8458;52.220;9.884;2022-07-06T07:12:51;101547.91;;;16.90;64.85
16690;BME280;8458;52.220;9.884;2022-07-06T07:15:18;101546.56;;;16.67;65.01
16690;BME280;8458;52.220;9.884;2022-07-06T07:17:45;101554.09;;;16.66;65.26
16690;BME280;8458;52.220;9.884;2022-07-06T07:20:13;101553.00;;;16.67;65.32
16690;BME280;8458;52.220;9.884;2022-07-06T07:22:39;101554.38;;;16.75;64.73
16690;BME280;8458;52.220;9.884;2022-07-06T07:25:07;101557.44;;;16.84;64.66
16690;BME280;8458;52.220;9.884;2022-07-06T07:27:33;101556.28;;;16.85;63.57
16690;BME280;8458;52.220;9.884;2022-07-06T07:30:00;101555.44;;;16.95;63.48
16690;BME280;8458;52.220;9.884;2022-07-06T07:32:27;101559.09;;;16.90;63.18
16690;BME280;8458;52.220;9.884;2022-07-06T07:34:54;101556.53;;;16.99;63.41
16690;BME280;8458;52.220;9.884;2022-07-06T07:37:22;101557.91;;;17.07;63.61
16690;BME280;8458;52.220;9.884;2022-07-06T07:39:48;101555.69;;;16.98;63.90
16690;BME280;8458;52.220;9.884;2022-07-06T07:42:15;101556.50;;;17.09;62.79
16690;BME280;8458;52.220;9.884;2022-07-06T07:44:41;101555.09;;;17.12;63.33
16690;BME280;8458;52.220;9.884;2022-07-06T07:47:08;101552.88;;;17.03;62.20
16690;BME280;8458;52.220;9.884;2022-07-06T07:49:35;101562.44;;;16.92;63.26
16690;BME280;8458;52.220;9.884;2022-07-06T07:52:01;101556.28;;;16.95;63.38
16690;BME280;8458;52.220;9.884;2022-07-06T07:54:29;101565.75;;;17.05;62.72
16690;BME280;8458;52.220;9.884;2022-07-06T07:56:56;101553.41;;;17.11;61.54
16690;BME280;8458;52.220;9.884;2022-07-06T07:59:23;101562.44;;;16.82;60.11
16690;BME280;8458;52.220;9.884;2022-07-06T08:01:50;101563.59;;;16.86;61.46
16690;BME280;8458;52.220;9.884;2022-07-06T08:06:59;101578.66;;;17.06;61.20
16690;BME280;8458;52.220;9.884;2022-07-06T08:09:26;101565.19;;;17.08;60.81
16690;BME280;8458;52.220;9.884;2022-07-06T08:11:54;101564.03;;;17.14;61.01
16690;BME280;8458;52.220;9.884;2022-07-06T08:14:20;101562.31;;;17.23;59.12
16690;BME280;8458;52.220;9.884;2022-07-06T08:16:47;101561.72;;;17.21;60.21
16690;BME280;8458;52.220;9.884;2022-07-06T08:19:14;101567.69;;;17.09;60.15
16690;BME280;8458;52.220;9.884;2022-07-06T08:21:41;101565.75;;;17.05;61.21
16690;BME280;8458;52.220;9.884;2022-07-06T08:24:08;101559.84;;;17.11;61.06
16690;BME280;8458;52.220;9.884;2022-07-06T08:26:35;101563.38;;;17.27;60.91
16690;BME280;8458;52.220;9.884;2022-07-06T08:29:03;101567.84;;;17.33;60.30
16690;BME280;8458;52.220;9.884;2022-07-06T08:31:30;101568.03;;;16.97;60.39
16690;BME280;8458;52.220;9.884;2022-07-06T08:33:59;101567.16;;;17.07;61.09
16690;BME280;8458;52.220;9.884;2022-07-06T08:36:25;101572.19;;;17.10;60.87
16690;BME280;8458;52.220;9.884;2022-07-06T08:38:52;101557.84;;;17.17;61.39
16690;BME280;8458;52.220;9.884;2022-07-06T08:41:21;101566.69;;;17.39;61.43
16690;BME280;8458;52.220;9.884;2022-07-06T08:43:49;101558.84;;;17.42;60.87
16690;BME280;8458;52.220;9.884;2022-07-06T08:46:18;101568.22;;;17.61;59.87
16690;BME280;8458;52.220;9.884;2022-07-06T08:48:45;101566.56;;;17.60;57.86
16690;BME280;8458;52.220;9.884;2022-07-06T08:51:13;101566.09;;;17.43;56.47
16690;BME280;8458;52.220;9.884;2022-07-06T08:53:40;101566.38;;;17.46;56.33
16690;BME280;8458;52.220;9.884;2022-07-06T08:56:08;101564.16;;;17.43;56.42
16690;BME280;8458;52.220;9.884;2022-07-06T08:58:34;101556.56;;;17.44;56.43
16690;BME280;8458;52.220;9.884;2022-07-06T09:01:01;101556.00;;;17.47;57.79
16690;BME280;8458;52.220;9.884;2022-07-06T09:03:29;101561.00;;;17.50;57.72
16690;BME280;8458;52.220;9.884;2022-07-06T09:06:00;101557.72;;;17.37;57.73
16690;BME280;8458;52.220;9.884;2022-07-06T09:08:28;101566.91;;;17.48;58.21
16690;BME280;8458;52.220;9.884;2022-07-06T09:10:56;101568.22;;;17.61;57.44
16690;BME280;8458;52.220;9.884;2022-07-06T09:13:23;101568.81;;;17.58;55.90
16690;BME280;8458;52.220;9.884;2022-07-06T09:15:50;101569.56;;;17.69;55.90
16690;BME280;8458;52.220;9.884;2022-07-06T09:18:16;101572.13;;;17.65;54.47
16690;BME280;8458;52.220;9.884;2022-07-06T09:20:44;101567.34;;;17.66;53.77
16690;BME280;8458;52.220;9.884;2022-07-06T09:23:15;101558.78;;;17.86;53.63
16690;BME280;8458;52.220;9.884;2022-07-06T09:25:47;101570.22;;;18.00;54.67
16690;BME280;8458;52.220;9.884;2022-07-06T09:28:14;101556.63;;;18.13;54.09
16690;BME280;8458;52.220;9.884;2022-07-06T09:30:40;101555.78;;;18.12;53.79
16690;BME280;8458;52.220;9.884;2022-07-06T09:33:07;101568.44;;;18.09;54.59
16690;BME280;8458;52.220;9.884;2022-07-06T09:35:36;101566.41;;;18.15;54.03
16690;BME280;8458;52.220;9.884;2022-07-06T09:38:06;101557.56;;;18.32;53.68
16690;BME280;8458;52.220;9.884;2022-07-06T09:40:35;101555.66;;;18.52;53.63
16690;BME280;8458;52.220;9.884;2022-07-06T09:43:13;101548.91;;;18.53;53.59
16690;BME280;8458;52.220;9.884;2022-07-06T09:45:41;101552.28;;;18.55;53.12
16690;BME280;8458;52.220;9.884;2022-07-06T09:48:11;101564.09;;;18.52;52.88
16690;BME280;8458;52.220;9.884;2022-07-06T09:50:49;101554.34;;;18.44;50.60
16690;BME280;8458;52.220;9.884;2022-07-06T09:53:20;101541.63;;;18.52;51.31
16690;BME280;8458;52.220;9.884;2022-07-06T09:55:49;101547.59;;;18.69;50.46
16690;BME280;8458;52.220;9.884;2022-07-06T09:58:17;101556.31;;;18.68;50.29
16690;BME280;8458;52.220;9.884;2022-07-06T10:00:48;101560.13;;;18.53;47.83
16690;BME280;8458;52.220;9.884;2022-07-06T10:03:17;101550.63;;;18.73;49.53
16690;BME280;8458;52.220;9.884;2022-07-06T10:05:48;101555.13;;;18.74;50.63
16690;BME280;8458;52.220;9.884;2022-07-06T10:08:19;101560.13;;;18.53;52.15
16690;BME280;8458;52.220;9.884;2022-07-06T10:10:49;101563.06;;;18.42;52.98
16690;BME280;8458;52.220;9.884;2022-07-06T10:13:22;101561.38;;;18.41;51.99
16690;BME280;8458;52.220;9.884;2022-07-06T10:15:51;101557.38;;;18.48;48.99
16690;BME280;8458;52.220;9.884;2022-07-06T10:18:19;101560.47;;;18.22;48.60
16690;BME280;8458;52.220;9.884;2022-07-06T10:20:49;101567.88;;;18.13;48.39
16690;BME280;8458;52.220;9.884;2022-07-06T10:23:23;101571.63;;;17.98;49.41
16690;BME280;8458;52.220;9.884;2022-07-06T10:25:52;101564.41;;;17.86;49.44
16690;BME280;8458;52.220;9.884;2022-07-06T10:28:27;101564.47;;;17.76;50.04
16690;BME280;8458;52.220;9.884;2022-07-06T10:31:03;101567.19;;;17.91;50.27
16690;BME280;8458;52.220;9.884;2022-07-06T10:33:31;101567.94;;;18.02;50.63
16690;BME280;8458;52.220;9.884;2022-07-06T10:35:58;101554.94;;;18.12;50.97
16690;BME280;8458;52.220;9.884;2022-07-06T10:38:35;101558.78;;;18.21;50.71
16690;BME280;8458;52.220;9.884;2022-07-06T10:41:08;101554.59;;;18.18;50.78
16690;BME280;8458;52.220;9.884;2022-07-06T10:43:36;101556.63;;;18.13;50.46
16690;BME280;8458;52.220;9.884;2022-07-06T10:46:10;101553.41;;;18.24;50.23
16690;BME280;8458;52.220;9.884;2022-07-06T10:48:41;101549.41;;;18.36;50.79
16690;BME280;8458;52.220;9.884;2022-07-06T10:51:10;101547.91;;;18.43;50.82
16690;BME280;8458;52.220;9.884;2022-07-06T10:53:40;101547.84;;;18.49;49.30
16690;BME280;8458;52.220;9.884;2022-07-06T10:56:08;101539.25;;;18.64;49.03
16690;BME280;8458;52.220;9.884;2022-07-06T10:58:39;101542.59;;;18.66;49.40
16690;BME280;8458;52.220;9.884;2022-07-06T11:01:07;101537.06;;;18.56;49.81
16690;BME280;8458;52.220;9.884;2022-07-06T11:03:36;101529.91;;;18.69;48.73
16690;BME280;8458;52.220;9.884;2022-07-06T11:06:09;101531.69;;;18.84;48.07
16690;BME280;8458;52.220;9.884;2022-07-06T11:08:53;101544.00;;;18.39;49.95
16690;BME280;8458;52.220;9.884;2022-07-06T11:11:23;101541.25;;;18.34;49.32
16690;BME280;8458;52.220;9.884;2022-07-06T11:13:59;101548.38;;;18.26;49.90
16690;BME280;8458;52.220;9.884;2022-07-06T11:16:30;101546.03;;;18.34;50.67
16690;BME280;8458;52.220;9.884;2022-07-06T11:19:05;101543.03;;;18.25;49.87
16690;BME280;8458;52.220;9.884;2022-07-06T11:21:48;101538.63;;;18.19;49.88
16690;BME280;8458;52.220;9.884;2022-07-06T11:24:24;101537.97;;;18.27;50.11
16690;BME280;8458;52.220;9.884;2022-07-06T11:26:58;101533.75;;;18.30;50.67
16690;BME280;8458;52.220;9.884;2022-07-06T11:29:28;101535.34;;;18.36;50.37
16690;BME280;8458;52.220;9.884;2022-07-06T11:32:01;101528.84;;;18.40;50.15
16690;BME280;8458;52.220;9.884;2022-07-06T11:34:33;101526.81;;;18.46;50.32
16690;BME280;8458;52.220;9.884;2022-07-06T11:37:04;101524.72;;;18.57;49.62
16690;BME280;8458;52.220;9.884;2022-07-06T11:39:35;101523.25;;;18.89;50.05
16690;BME280;8458;52.220;9.884;2022-07-06T11:42:05;101530.88;;;19.07;49.32
16690;BME280;8458;52.220;9.884;2022-07-06T11:44:38;101516.19;;;19.29;48.54
16690;BME280;8458;52.220;9.884;2022-07-06T11:47:08;101519.69;;;19.40;47.84
16690;BME280;8458;52.220;9.884;2022-07-06T11:49:40;101511.38;;;19.68;47.46
16690;BME280;8458;52.220;9.884;2022-07-06T11:52:12;101512.44;;;19.72;47.28
16690;BME280;8458;52.220;9.884;2022-07-06T11:54:41;101512.09;;;19.60;48.00
16690;BME280;8458;52.220;9.884;2022-07-06T11:57:10;101516.50;;;19.66;48.35
16690;BME280;8458;52.220;9.884;2022-07-06T11:59:38;101507.03;;;19.76;45.97
16690;BME280;8458;52.220;9.884;2022-07-06T12:02:09;101507.13;;;19.90;46.27
16690;BME280;8458;52.220;9.884;2022-07-06T12:04:38;101516.56;;;19.61;44.67
16690;BME280;8458;52.220;9.884;2022-07-06T12:07:09;101507.44;;;19.69;45.26
16690;BME280;8458;52.220;9.884;2022-07-06T12:09:38;101513.69;;;19.47;43.85
16690;BME280;8458;52.220;9.884;2022-07-06T12:12:09;101504.41;;;19.46;44.20
16690;BME280;8458;52.220;9.884;2022-07-06T12:14:40;101510.94;;;19.61;45.28
16690;BME280;8458;52.220;9.884;2022-07-06T12:17:08;101504.00;;;19.72;44.91
16690;BME280;8458;52.220;9.884;2022-07-06T12:19:39;101503.53;;;19.84;44.47
16690;BME280;8458;52.220;9.884;2022-07-06T12:22:07;101504.88;;;19.53;44.21
16690;BME280;8458;52.220;9.884;2022-07-06T12:24:42;101504.31;;;19.51;44.56
16690;BME280;8458;52.220;9.884;2022-07-06T12:27:16;101506.16;;;19.61;44.20
16690;BME280;8458;52.220;9.884;2022-07-06T12:29:43;101493.44;;;19.64;44.15
16690;BME280;8458;52.220;9.884;2022-07-06T12:32:19;101499.31;;;19.48;43.98
16690;BME280;8458;52.220;9.884;2022-07-06T12:35:04;101506.03;;;19.33;45.04
16690;BME280;8458;52.220;9.884;2022-07-06T12:37:33;101491.94;;;19.52;45.30
16690;BME280;8458;52.220;9.884;2022-07-06T12:40:15;101491.19;;;19.66;45.17
16690;BME280;8458;52.220;9.884;2022-07-06T12:42:59;101492.81;;;19.67;45.25
16690;BME280;8458;52.220;9.884;2022-07-06T12:45:32;101486.59;;;19.70;43.89
16690;BME280;8458;52.220;9.884;2022-07-06T12:48:09;101492.31;;;19.98;45.32
16690;BME280;8458;52.220;9.884;2022-07-06T12:50:39;101483.69;;;20.08;44.46
16690;BME280;8458;52.220;9.884;2022-07-06T12:53:25;101491.53;;;20.11;44.20
16690;BME280;8458;52.220;9.884;2022-07-06T12:56:08;101496.56;;;19.95;43.01
16690;BME280;8458;52.220;9.884;2022-07-06T12:58:39;101496.19;;;19.69;43.74
16690;BME280;8458;52.220;9.884;2022-07-06T13:01:20;101487.00;;;19.63;44.23
16690;BME280;8458;52.220;9.884;2022-07-06T13:03:54;101489.78;;;19.82;44.78
16690;BME280;8458;52.220;9.884;2022-07-06T13:06:49;101486.50;;;20.08;43.99
16690;BME280;8458;52.220;9.884;2022-07-06T13:09:19;101488.00;;;20.33;43.91